Time;durP1;ratioP1;P1;durP2;ratioP2;P2;SDS_P1;SDS_P2;PMS_P1;PMS_P2;Temp;Humidity;BMP_temperature;BMP_pressure;BME280_temperature;BME280_humidity;BME280_pressure;Samples;Min_cycle;Max_cycle;Signal;HPM_P1;HPM_P2
2023/06/08 00:02:19;;;;;;;19.27;9.50;;;;;;;15.55;100.00;101992.25;5066407;28;20637;-70
2023/06/08 00:04:45;;;;;;;19.57;10.00;;;;;;;15.54;100.00;101996.56;5056453;28;20284;-70
2023/06/08 00:07:14;;;;;;;17.43;9.27;;;;;;;15.47;100.00;101991.28;5061377;28;20690;-69
2023/06/08 00:09:44;;;;;;;17.33;9.77;;;;;;;15.45;100.00;101991.25;5065277;28;20200;-69
2023/06/08 00:12:10;;;;;;;19.73;9.37;;;;;;;15.44;100.00;101986.94;5064884;28;20215;-69
2023/06/08 00:14:37;;;;;;;18.27;9.63;;;;;;;15.37;100.00;101986.81;5064403;28;20576;-70
2023/06/08 00:17:03;;;;;;;17.47;9.93;;;;;;;15.33;100.00;101987.56;5061378;28;20650;-69
2023/06/08 00:19:36;;;;;;;15.63;9.50;;;;;;;15.31;100.00;101994.38;5055618;28;20192;-70
2023/06/08 00:22:04;;;;;;;19.87;10.53;;;;;;;15.23;100.00;101990.78;5061907;28;20213;-69
2023/06/08 00:24:34;;;;;;;19.13;10.40;;;;;;;15.28;100.00;101986.59;5059487;28;20217;-70
2023/06/08 00:26:59;;;;;;;18.63;9.57;;;;;;;15.18;100.00;101994.97;5067556;28;20270;-70
2023/06/08 00:29:26;;;;;;;21.60;10.57;;;;;;;15.16;100.00;101994.09;5067323;28;20713;-69
2023/06/08 00:31:52;;;;;;;16.93;9.40;;;;;;;15.13;100.00;101994.91;5065791;28;20319;-69
2023/06/08 00:34:18;;;;;;;15.73;9.60;;;;;;;15.14;100.00;101990.63;5068387;28;20741;-69
2023/06/08 00:36:43;;;;;;;16.93;10.17;;;;;;;15.13;100.00;101994.03;5057225;28;20277;-70
2023/06/08 00:39:12;;;;;;;20.70;9.93;;;;;;;15.08;100.00;101991.38;5066725;28;20209;-70
2023/06/08 00:41:38;;;;;;;22.30;10.40;;;;;;;15.06;100.00;101987.88;5061528;28;21025;-70
2023/06/08 00:44:07;;;;;;;20.60;9.43;;;;;;;15.07;100.00;101991.34;5066981;28;20224;-70
2023/06/08 00:46:34;;;;;;;14.97;9.40;;;;;;;15.00;100.00;101992.91;5066682;28;20699;-71
2023/06/08 00:49:01;;;;;;;21.10;11.00;;;;;;;14.94;100.00;101989.34;5062249;28;20204;-70
2023/06/08 00:51:31;;;;;;;18.00;11.10;;;;;;;14.93;100.00;101982.47;5061262;28;20193;-70
2023/06/08 00:53:57;;;;;;;18.90;10.73;;;;;;;14.94;100.00;101985.06;5066039;28;20193;-69
2023/06/08 00:56:26;;;;;;;21.20;9.93;;;;;;;14.93;100.00;101983.34;5065259;28;20185;-71
2023/06/08 00:58:55;;;;;;;20.97;10.63;;;;;;;14.88;100.00;101984.06;5065296;28;20259;-70
2023/06/08 01:01:24;;;;;;;18.77;9.83;;;;;;;14.82;100.00;101992.53;5065489;28;20232;-70
2023/06/08 01:03:55;;;;;;;18.23;10.20;;;;;;;14.77;100.00;101990.69;5062025;28;20194;-70
2023/06/08 01:06:20;;;;;;;24.13;10.83;;;;;;;14.75;100.00;101982.97;5068130;28;20201;-70
2023/06/08 01:08:52;;;;;;;17.60;10.40;;;;;;;14.63;100.00;101985.28;5064427;28;20257;-70
2023/06/08 01:11:33;;;;;;;19.63;10.97;;;;;;;14.61;100.00;101981.81;5066329;28;20189;-69
2023/06/08 01:14:21;;;;;;;19.90;10.93;;;;;;;14.63;100.00;101980.13;5067904;28;20262;-70
2023/06/08 01:16:49;;;;;;;16.53;9.43;;;;;;;14.54;100.00;101973.91;5069759;28;20185;-69
2023/06/08 01:19:28;;;;;;;19.60;9.77;;;;;;;14.47;100.00;101972.91;5058141;28;20282;-69
2023/06/08 01:22:16;;;;;;;21.50;11.17;;;;;;;14.51;100.00;101979.00;5062771;28;20220;-70
2023/06/08 01:24:49;;;;;;;18.80;10.67;;;;;;;14.54;100.00;101976.50;5059227;28;20205;-69
2023/06/08 01:27:19;;;;;;;16.00;10.53;;;;;;;14.40;100.00;101981.31;5078601;28;20197;-70
2023/06/08 01:29:45;;;;;;;18.37;10.60;;;;;;;14.42;100.00;101981.38;5064815;28;20209;-70
2023/06/08 01:32:11;;;;;;;22.40;11.87;;;;;;;14.38;100.00;101977.84;5066505;28;20216;-70
2023/06/08 01:34:38;;;;;;;24.77;11.13;;;;;;;14.32;100.00;101977.69;5063026;28;20218;-70
2023/06/08 01:37:39;;;;;;;15.00;10.03;;;;;;;14.29;100.00;101976.75;5083244;28;20316;-69
2023/06/08 01:40:14;;;;;;;23.63;11.63;;;;;;;14.22;100.00;101974.91;5055118;28;20199;-69
2023/06/08 01:42:44;;;;;;;16.77;10.37;;;;;;;14.21;100.00;101970.56;5065294;28;20877;-69
2023/06/08 01:45:16;;;;;;;19.80;10.67;;;;;;;14.17;100.00;101969.59;5065707;28;21116;-70
2023/06/08 01:47:47;;;;;;;16.90;10.73;;;;;;;14.14;100.00;101974.66;5065464;28;20731;-69
2023/06/08 01:50:12;;;;;;;15.67;10.03;;;;;;;14.08;100.00;101974.53;5063557;28;20185;-70
2023/06/08 01:52:41;;;;;;;19.97;11.03;;;;;;;14.10;100.00;101982.31;5061049;28;20587;-70
2023/06/08 01:55:15;;;;;;;25.17;11.03;;;;;;;14.01;100.00;101982.09;5062793;28;20681;-70
2023/06/08 01:57:41;;;;;;;18.97;10.60;;;;;;;14.05;100.00;101978.75;5084415;28;20212;-69
2023/06/08 02:00:08;;;;;;;20.40;10.93;;;;;;;14.04;100.00;101979.59;5067478;28;20846;-69
2023/06/08 02:02:38;;;;;;;17.17;10.20;;;;;;;13.94;100.00;101975.91;5065556;28;20233;-69
2023/06/08 02:05:07;;;;;;;20.77;11.87;;;;;;;13.98;100.00;101971.69;5060028;28;20193;-70
2023/06/08 02:07:32;;;;;;;20.80;10.90;;;;;;;13.89;100.00;101971.47;5061450;28;20555;-69
2023/06/08 02:09:58;;;;;;;19.77;10.67;;;;;;;13.84;100.00;101973.06;5059767;28;20197;-70
2023/06/08 02:12:23;;;;;;;22.87;11.27;;;;;;;13.81;100.00;101976.44;5063531;28;20717;-70
2023/06/08 02:14:49;;;;;;;23.57;10.80;;;;;;;13.86;100.00;101980.00;5079849;28;20217;-70
2023/06/08 02:17:18;;;;;;;21.70;11.47;;;;;;;13.80;100.00;101982.44;5066497;28;20830;-70
2023/06/08 02:19:44;;;;;;;22.10;10.83;;;;;;;13.80;100.00;101984.13;5061523;28;20239;-70
2023/06/08 02:22:10;;;;;;;16.80;11.10;;;;;;;13.76;100.00;101984.91;5058624;28;20217;-69
2023/06/08 02:24:35;;;;;;;18.87;11.40;;;;;;;13.64;100.00;101974.31;5066212;28;20207;-70
2023/06/08 02:27:02;;;;;;;19.30;10.77;;;;;;;13.65;100.00;101981.19;5065507;28;20225;-70
2023/06/08 02:29:28;;;;;;;17.87;11.17;;;;;;;13.65;100.00;101976.03;5065032;28;20204;-70
2023/06/08 02:31:53;;;;;;;24.37;11.20;;;;;;;13.63;100.00;101981.13;5062322;28;20213;-70
2023/06/08 02:34:19;;;;;;;20.13;10.87;;;;;;;13.67;100.00;101976.97;5063521;28;20192;-70
2023/06/08 02:36:47;;;;;;;19.63;11.03;;;;;;;13.57;100.00;101968.13;5066424;28;20592;-71
2023/06/08 02:39:14;;;;;;;22.63;11.10;;;;;;;13.57;100.00;101980.09;5061764;28;20301;-70
2023/06/08 02:41:40;;;;;;;22.07;11.27;;;;;;;13.54;100.00;101980.06;5059955;28;20190;-69
2023/06/08 02:44:06;;;;;;;21.03;11.17;;;;;;;13.56;100.00;101975.81;5080366;28;20211;-70
2023/06/08 02:46:32;;;;;;;16.93;11.53;;;;;;;13.48;100.00;101985.91;5066995;28;20193;-69
2023/06/08 02:48:58;;;;;;;23.17;11.33;;;;;;;13.48;100.00;101979.91;5065071;28;20220;-70
2023/06/08 02:51:24;;;;;;;17.53;11.03;;;;;;;13.54;100.00;101977.47;5063055;28;20189;-70
2023/06/08 02:53:49;;;;;;;18.87;12.07;;;;;;;13.50;100.00;101984.25;5078561;28;20261;-70
2023/06/08 02:56:15;;;;;;;20.77;12.30;;;;;;;13.46;100.00;101986.69;5066757;28;20221;-70
2023/06/08 02:58:46;;;;;;;17.77;10.87;;;;;;;13.45;100.00;101974.66;5063781;28;20238;-69
2023/06/08 03:01:16;;;;;;;19.97;10.77;;;;;;;13.38;100.00;101976.22;5063027;28;20186;-70
2023/06/08 03:04:12;;;;;;;19.97;12.07;;;;;;;13.40;100.00;101978.81;5053714;28;20197;-70
2023/06/08 03:06:43;;;;;;;20.57;11.20;;;;;;;13.40;100.00;101974.53;5054300;28;20662;-70
2023/06/08 03:09:11;;;;;;;19.67;11.37;;;;;;;13.38;100.00;101981.34;5045374;28;20539;-69
2023/06/08 03:11:39;;;;;;;18.50;10.93;;;;;;;13.40;100.00;101986.53;5064904;28;20200;-70
2023/06/08 03:14:07;;;;;;;21.83;11.50;;;;;;;13.43;100.00;101994.31;5054875;28;20213;-70
2023/06/08 03:16:35;;;;;;;21.20;12.13;;;;;;;13.34;100.00;101987.25;5065127;28;20566;-70
2023/06/08 03:19:02;;;;;;;22.03;11.77;;;;;;;13.27;100.00;101989.63;5065780;28;20223;-70
2023/06/08 03:21:29;;;;;;;20.17;11.17;;;;;;;13.26;100.00;101993.03;5057886;28;20197;-71
2023/06/08 03:23:55;;;;;;;20.57;12.40;;;;;;;13.27;100.00;101979.31;5038439;28;20236;-69
2023/06/08 03:26:21;;;;;;;20.43;11.90;;;;;;;13.28;100.00;101979.38;5062855;28;20177;-69
2023/06/08 03:28:47;;;;;;;22.87;11.67;;;;;;;13.28;100.00;101987.09;5063821;28;20251;-70
2023/06/08 03:31:14;;;;;;;22.10;12.00;;;;;;;13.30;100.00;101988.00;5048142;28;20192;-70
2023/06/08 03:33:45;;;;;;;21.80;11.43;;;;;;;13.26;100.00;101985.31;5046141;28;20248;-71
2023/06/08 03:36:11;;;;;;;18.73;12.47;;;;;;;13.21;100.00;101982.59;5066644;28;20232;-70
2023/06/08 03:38:44;;;;;;;21.40;12.50;;;;;;;13.21;100.00;101995.47;5063482;28;20238;-69
2023/06/08 03:41:13;;;;;;;23.13;11.70;;;;;;;13.25;100.00;101986.16;5062706;28;20195;-70
2023/06/08 03:43:39;;;;;;;24.27;12.43;;;;;;;13.24;100.00;101987.84;5060911;28;20206;-71
2023/06/08 03:46:05;;;;;;;19.97;11.77;;;;;;;13.27;100.00;101982.78;5066248;28;20200;-70
2023/06/08 03:48:31;;;;;;;22.00;12.10;;;;;;;13.30;100.00;101994.84;5065872;28;20223;-70
2023/06/08 03:50:58;;;;;;;20.73;12.13;;;;;;;13.27;100.00;101987.94;5074357;28;20294;-70
2023/06/08 03:53:25;;;;;;;20.40;11.83;;;;;;;13.31;100.00;101991.44;5043368;28;20221;-69
2023/06/08 03:55:50;;;;;;;19.77;12.23;;;;;;;13.33;100.00;101988.09;5079457;28;20640;-69
2023/06/08 03:58:16;;;;;;;19.43;12.07;;;;;;;13.29;100.00;101986.25;5063401;28;20209;-70
2023/06/08 04:00:43;;;;;;;25.57;12.90;;;;;;;13.32;100.00;101990.63;5049084;28;20185;-69
2023/06/08 04:03:10;;;;;;;23.07;13.17;;;;;;;13.41;100.00;101991.75;5082684;28;20204;-70
2023/06/08 04:05:36;;;;;;;21.63;13.70;;;;;;;13.37;100.00;101978.72;5060789;28;20189;-70
2023/06/08 04:08:02;;;;;;;22.00;13.73;;;;;;;13.41;100.00;101986.59;5066610;28;20189;-70
2023/06/08 04:10:29;;;;;;;23.90;12.37;;;;;;;13.42;100.00;101987.44;5062685;28;20185;-70
2023/06/08 04:12:56;;;;;;;23.67;13.63;;;;;;;13.44;100.00;101981.50;5084560;28;20271;-69
2023/06/08 04:15:21;;;;;;;23.00;13.20;;;;;;;13.44;100.00;101983.22;5049560;28;20193;-69
2023/06/08 04:17:49;;;;;;;21.27;13.73;;;;;;;13.48;100.00;101979.91;5080432;28;20220;-69
2023/06/08 04:20:17;;;;;;;25.00;13.37;;;;;;;13.45;100.00;101983.25;5061162;28;20193;-70
2023/06/08 04:22:43;;;;;;;23.43;14.13;;;;;;;13.46;100.00;101979.84;5082384;28;20767;-70
2023/06/08 04:25:10;;;;;;;21.63;13.80;;;;;;;13.44;100.00;101970.38;5064632;28;20662;-69
2023/06/08 04:27:36;;;;;;;24.93;13.43;;;;;;;13.52;100.00;101969.72;5066694;28;20203;-70
2023/06/08 04:30:02;;;;;;;23.80;12.73;;;;;;;13.57;100.00;101974.97;5067337;28;20296;-69
2023/06/08 04:32:31;;;;;;;20.70;13.90;;;;;;;13.54;100.00;101973.19;5061670;28;20656;-70
2023/06/08 04:34:56;;;;;;;20.63;12.83;;;;;;;13.51;100.00;101980.84;5065332;28;20202;-70
2023/06/08 04:37:22;;;;;;;24.00;13.60;;;;;;;13.60;100.00;101977.63;5050591;28;20193;-70
2023/06/08 04:39:48;;;;;;;22.57;14.77;;;;;;;13.59;100.00;101986.19;5045789;28;20288;-70
2023/06/08 04:42:17;;;;;;;20.13;14.27;;;;;;;13.58;100.00;101984.44;5050298;28;20217;-70
2023/06/08 04:44:43;;;;;;;18.13;13.30;;;;;;;13.49;100.00;101979.06;5063781;28;20204;-69
2023/06/08 04:47:09;;;;;;;22.60;14.37;;;;;;;13.50;100.00;101980.81;5068170;28;20200;-70
2023/06/08 04:49:35;;;;;;;21.53;15.03;;;;;;;13.51;100.00;101990.25;5065620;28;20189;-68
2023/06/08 04:52:06;;;;;;;24.13;14.90;;;;;;;13.42;100.00;101978.03;5076110;28;20720;-69
2023/06/08 04:54:31;;;;;;;22.53;15.37;;;;;;;13.51;100.00;101982.53;5065472;28;20207;-70
2023/06/08 04:56:58;;;;;;;25.43;15.47;;;;;;;13.55;100.00;101980.09;5085458;28;20193;-69
2023/06/08 04:59:27;;;;;;;27.43;16.07;;;;;;;13.63;100.00;101982.88;5065174;28;20240;-69
2023/06/08 05:01:54;;;;;;;25.57;17.60;;;;;;;13.74;100.00;101978.84;5063570;28;20217;-70
2023/06/08 05:04:20;;;;;;;25.83;16.43;;;;;;;13.89;100.00;101981.78;5067282;28;20216;-70
2023/06/08 05:06:46;;;;;;;30.97;17.83;;;;;;;13.88;100.00;101980.03;5065098;28;20197;-70
2023/06/08 05:09:14;;;;;;;29.47;17.97;;;;;;;13.83;100.00;101976.50;5066475;28;20270;-70
2023/06/08 05:11:40;;;;;;;24.30;17.97;;;;;;;13.99;100.00;101976.03;5066289;28;20205;-70
2023/06/08 05:14:10;;;;;;;29.07;18.83;;;;;;;14.10;100.00;101980.63;5066710;28;20196;-69
2023/06/08 05:16:36;;;;;;;25.73;17.47;;;;;;;14.23;100.00;101969.75;5062950;28;20239;-70
2023/06/08 05:19:03;;;;;;;25.77;16.97;;;;;;;14.31;100.00;101975.13;5066995;28;20209;-70
2023/06/08 05:21:28;;;;;;;27.93;16.80;;;;;;;14.40;100.00;101978.75;5064559;28;20637;-71
2023/06/08 05:23:54;;;;;;;23.60;15.60;;;;;;;14.35;100.00;101980.34;5062175;28;20280;-71
2023/06/08 05:26:21;;;;;;;23.77;15.97;;;;;;;14.33;100.00;101976.00;5063884;28;20221;-70
2023/06/08 05:28:47;;;;;;;28.07;15.73;;;;;;;14.43;100.00;101980.53;5067982;28;20264;-70
2023/06/08 05:31:12;;;;;;;26.17;15.80;;;;;;;14.61;100.00;101980.91;5065336;28;20288;-70
2023/06/08 05:33:37;;;;;;;25.33;15.40;;;;;;;14.80;100.00;101977.88;5065738;28;20209;-71
2023/06/08 05:36:04;;;;;;;22.47;15.40;;;;;;;14.89;100.00;101985.81;5068545;28;20563;-71
2023/06/08 05:38:29;;;;;;;22.17;15.03;;;;;;;14.97;100.00;101989.41;5061821;28;20252;-72
2023/06/08 05:40:55;;;;;;;22.33;14.93;;;;;;;15.11;100.00;101988.81;5063875;28;20216;-73
2023/06/08 05:43:20;;;;;;;21.67;15.20;;;;;;;15.28;100.00;101978.84;5066790;28;20209;-72
2023/06/08 05:45:46;;;;;;;21.67;15.27;;;;;;;15.26;100.00;101975.34;5068077;28;20212;-71
2023/06/08 05:48:12;;;;;;;25.07;15.03;;;;;;;15.24;100.00;101980.47;5068137;28;20352;-72
2023/06/08 05:50:38;;;;;;;23.53;15.00;;;;;;;15.30;100.00;101975.47;5062998;28;20262;-71
2023/06/08 05:53:04;;;;;;;19.50;16.07;;;;;;;15.29;100.00;101970.25;5063792;28;20212;-72
2023/06/08 05:55:29;;;;;;;20.80;14.80;;;;;;;15.46;100.00;101972.31;5059048;28;20535;-72
2023/06/08 05:57:55;;;;;;;19.90;14.03;;;;;;;15.49;100.00;101969.81;5068646;28;20248;-71
2023/06/08 06:00:21;;;;;;;19.80;14.13;;;;;;;15.44;100.00;101971.44;5067066;28;20189;-72
2023/06/08 06:02:46;;;;;;;20.60;14.07;;;;;;;15.66;100.00;101973.53;5063554;28;20221;-74
2023/06/08 06:05:12;;;;;;;19.40;13.50;;;;;;;15.72;100.00;101968.50;5064996;28;20576;-72
2023/06/08 06:07:38;;;;;;;19.53;14.50;;;;;;;15.70;100.00;101964.16;5059964;28;20576;-71
2023/06/08 06:10:05;;;;;;;20.70;13.77;;;;;;;15.95;100.00;101961.09;5061885;28;20220;-71
2023/06/08 06:12:31;;;;;;;19.03;14.03;;;;;;;15.95;100.00;101963.69;5065128;28;20874;-72
2023/06/08 06:14:56;;;;;;;18.73;13.60;;;;;;;15.97;100.00;101959.44;5065679;28;20203;-72
2023/06/08 06:17:22;;;;;;;19.13;13.27;;;;;;;16.04;100.00;101959.53;5061215;28;20199;-72
2023/06/08 06:19:48;;;;;;;20.43;14.40;;;;;;;16.15;100.00;101964.84;5068625;28;20197;-71
2023/06/08 06:22:15;;;;;;;17.50;14.10;;;;;;;16.27;100.00;101955.56;5060404;28;20205;-71
2023/06/08 06:24:43;;;;;;;17.60;13.77;;;;;;;16.39;100.00;101960.03;5065152;28;20728;-72
2023/06/08 06:27:09;;;;;;;21.10;14.60;;;;;;;16.52;100.00;101949.91;5063852;28;20628;-71
2023/06/08 06:29:35;;;;;;;21.07;14.20;;;;;;;16.58;100.00;101951.72;5064200;28;20185;-72
2023/06/08 06:32:00;;;;;;;19.87;14.47;;;;;;;16.60;100.00;101957.75;5066312;28;20274;-71
2023/06/08 06:34:26;;;;;;;16.17;13.17;;;;;;;16.77;100.00;101954.53;5065273;28;20191;-71
2023/06/08 06:36:51;;;;;;;19.93;13.57;;;;;;;16.89;100.00;101956.38;5039571;28;20543;-72
2023/06/08 06:39:20;;;;;;;18.63;13.60;;;;;;;17.01;100.00;101951.34;5056955;28;20209;-70
2023/06/08 06:41:45;;;;;;;18.20;13.47;;;;;;;17.15;100.00;101953.25;5045721;28;20225;-71
2023/06/08 06:44:12;;;;;;;20.40;13.30;;;;;;;17.30;100.00;101943.03;5061332;28;20677;-72
2023/06/08 06:46:37;;;;;;;21.20;13.67;;;;;;;17.39;100.00;101942.25;5066285;28;20200;-71
2023/06/08 06:49:03;;;;;;;17.97;12.40;;;;;;;17.53;100.00;101946.75;5062206;28;20189;-71
2023/06/08 06:51:28;;;;;;;17.37;12.53;;;;;;;17.67;100.00;101933.91;5065687;28;20211;-71
2023/06/08 06:53:54;;;;;;;18.90;14.03;;;;;;;17.80;100.00;101943.50;5064357;28;20200;-71
2023/06/08 06:56:20;;;;;;;19.60;13.27;;;;;;;17.57;100.00;101922.63;5062468;28;20272;-71
2023/06/08 06:58:46;;;;;;;17.67;13.40;;;;;;;17.62;100.00;101935.59;5065427;28;20629;-72
2023/06/08 07:01:13;;;;;;;17.40;13.63;;;;;;;17.66;100.00;101942.53;5061263;28;20246;-71
2023/06/08 07:03:42;;;;;;;17.63;13.00;;;;;;;17.75;100.00;101950.38;5065323;28;20734;-71
2023/06/08 07:06:11;;;;;;;20.37;13.80;;;;;;;18.02;100.00;101930.72;5060510;28;20287;-70
2023/06/08 07:08:37;;;;;;;19.30;13.30;;;;;;;18.26;100.00;101930.00;5061373;28;20272;-70
2023/06/08 07:11:03;;;;;;;14.63;12.53;;;;;;;18.33;100.00;101904.13;5062166;28;20218;-70
2023/06/08 07:13:29;;;;;;;22.07;13.30;;;;;;;18.46;100.00;101913.72;5061489;28;20282;-70
2023/06/08 07:15:54;;;;;;;15.80;12.23;;;;;;;18.66;100.00;101904.25;5060470;28;20188;-70
2023/06/08 07:18:20;;;;;;;16.77;12.30;;;;;;;18.82;100.00;101871.44;5065360;28;20852;-70
2023/06/08 07:20:46;;;;;;;17.20;11.90;;;;;;;19.00;100.00;101853.31;5059623;28;20194;-71
2023/06/08 07:23:12;;;;;;;16.90;11.77;;;;;;;19.12;100.00;101829.97;5055306;28;20213;-70
2023/06/08 07:25:37;;;;;;;14.97;11.10;;;;;;;19.25;100.00;101844.72;5062650;28;20193;-70
2023/06/08 07:28:07;;;;;;;14.77;11.90;;;;;;;19.54;100.00;101848.16;5065213;28;20254;-71
2023/06/08 07:30:33;;;;;;;17.47;12.27;;;;;;;19.48;100.00;101809.19;5061914;28;20193;-71
2023/06/08 07:33:00;;;;;;;16.30;12.00;;;;;;;19.52;100.00;101808.28;5065129;28;20235;-71
2023/06/08 07:35:25;;;;;;;14.40;10.73;;;;;;;19.73;100.00;101795.28;5070011;28;20220;-71
2023/06/08 07:37:52;;;;;;;15.93;11.27;;;;;;;19.72;100.00;101773.59;5059682;28;20698;-71
2023/06/08 07:40:18;;;;;;;16.77;11.57;;;;;;;19.99;100.00;101803.88;5068256;28;20591;-72
2023/06/08 07:42:44;;;;;;;18.30;12.00;;;;;;;20.04;100.00;101783.91;5067109;28;20224;-72
2023/06/08 07:45:13;;;;;;;15.77;11.40;;;;;;;20.14;100.00;101777.81;5063139;28;20207;-70
2023/06/08 07:47:42;;;;;;;15.80;10.77;;;;;;;20.40;100.00;101766.41;5068695;28;20190;-72
2023/06/08 07:50:08;;;;;;;15.73;11.13;;;;;;;20.53;100.00;101759.38;5069633;28;20255;-71
2023/06/08 07:52:34;;;;;;;13.23;10.37;;;;;;;20.73;100.00;101753.16;5064207;28;20227;-71
2023/06/08 07:55:00;;;;;;;14.80;10.70;;;;;;;20.86;100.00;101749.59;5060546;28;20198;-70
2023/06/08 07:57:26;;;;;;;15.10;10.53;;;;;;;20.89;100.00;101699.22;5064068;28;20185;-70
2023/06/08 07:59:52;;;;;;;14.20;10.93;;;;;;;21.02;100.00;101704.34;5058087;28;20270;-70
2023/06/08 08:02:18;;;;;;;14.53;9.63;;;;;;;21.21;100.00;101712.81;5062516;28;20209;-71
2023/06/08 08:04:43;;;;;;;13.63;10.67;;;;;;;21.39;100.00;101684.84;5069200;28;20646;-70
2023/06/08 08:07:08;;;;;;;15.57;10.63;;;;;;;21.39;100.00;101674.41;5062776;28;20273;-72
2023/06/08 08:09:35;;;;;;;12.47;9.80;;;;;;;21.79;100.00;101669.59;5066387;28;20220;-71
2023/06/08 08:12:00;;;;;;;13.20;10.27;;;;;;;21.86;100.00;101621.69;5061417;28;20220;-71
2023/06/08 08:14:26;;;;;;;17.53;10.23;;;;;;;21.96;100.00;101646.75;5052181;28;20188;-72
2023/06/08 08:16:52;;;;;;;14.10;10.10;;;;;;;22.03;100.00;101633.59;5083140;28;20561;-71
2023/06/08 08:19:17;;;;;;;14.60;10.07;;;;;;;22.47;100.00;101642.53;5068954;28;20678;-72
2023/06/08 08:21:43;;;;;;;15.47;9.57;;;;;;;22.42;97.95;101609.47;5066036;28;20659;-72
2023/06/08 08:24:09;;;;;;;14.63;9.50;;;;;;;22.46;100.00;101630.38;5065757;28;20662;-71
2023/06/08 08:26:40;;;;;;;14.03;8.90;;;;;;;22.51;96.11;101607.66;5063513;28;20772;-70
2023/06/08 08:29:06;;;;;;;14.57;8.67;;;;;;;22.65;95.36;101598.66;5066767;28;20200;-72
2023/06/08 08:31:32;;;;;;;13.80;8.93;;;;;;;22.95;94.00;101605.06;5065343;28;20205;-70
2023/06/08 08:33:58;;;;;;;11.20;8.50;;;;;;;23.15;96.17;101616.88;5068647;28;20190;-72
2023/06/08 08:36:23;;;;;;;13.67;8.73;;;;;;;23.30;88.73;101569.53;5063006;28;20198;-71
2023/06/08 08:38:49;;;;;;;10.97;9.27;;;;;;;23.50;92.15;101592.66;5066072;28;20208;-71
2023/06/08 08:41:17;;;;;;;12.07;8.03;;;;;;;23.47;89.67;101590.09;5063061;28;20704;-71
2023/06/08 08:44:01;;;;;;;13.50;9.03;;;;;;;23.57;90.25;101596.88;5063712;28;20222;-72
2023/06/08 08:46:33;;;;;;;9.40;7.67;;;;;;;23.83;90.77;101602.38;5063176;28;20667;-71
2023/06/08 08:49:04;;;;;;;12.82;8.32;;;;;;;23.93;87.47;101589.06;5068243;28;20193;-71
2023/06/08 08:51:32;;;;;;;9.27;7.00;;;;;;;24.09;85.21;101573.88;5064187;28;20195;-70
2023/06/08 08:54:02;;;;;;;12.13;7.68;;;;;;;24.25;84.56;101576.09;5061714;28;20193;-70
2023/06/08 08:56:30;;;;;;;11.85;8.10;;;;;;;24.38;79.21;101563.53;5062878;28;20189;-71
2023/06/08 08:58:56;;;;;;;9.35;8.02;;;;;;;24.56;78.21;101556.06;5065259;28;20212;-71
2023/06/08 09:01:23;;;;;;;11.30;7.90;;;;;;;24.37;74.75;101543.47;5066252;28;20189;-71
2023/06/08 09:03:49;;;;;;;13.35;8.18;;;;;;;24.50;77.75;101576.31;5068021;28;20227;-72
2023/06/08 09:06:14;;;;;;;9.82;7.40;;;;;;;24.71;78.47;101578.41;5067075;28;20193;-71
2023/06/08 09:08:41;;;;;;;11.05;8.25;;;;;;;24.57;72.39;101557.78;5081015;28;20649;-71
2023/06/08 09:11:10;;;;;;;10.65;7.82;;;;;;;24.90;73.14;101575.25;5062330;28;20188;-73
2023/06/08 09:13:41;;;;;;;17.75;9.35;;;;;;;24.65;73.34;101586.44;5049192;28;20752;-71
2023/06/08 09:16:10;;;;;;;15.07;9.18;;;;;;;24.87;72.63;101591.03;5066136;28;20201;-72
2023/06/08 09:18:36;;;;;;;10.43;7.95;;;;;;;25.08;75.25;101605.31;5065366;28;20225;-70
2023/06/08 09:21:24;;;;;;;10.43;8.07;;;;;;;25.11;71.85;101587.78;5063754;28;20200;-69
2023/06/08 09:24:05;;;;;;;14.77;8.57;;;;;;;25.07;71.52;101603.63;5063192;28;20231;-72
2023/06/08 09:26:32;;;;;;;15.00;8.95;;;;;;;25.05;69.11;101611.50;5060515;28;20857;-72
2023/06/08 09:29:03;;;;;;;13.07;8.07;;;;;;;25.21;68.83;101609.31;5067546;28;20232;-71
2023/06/08 09:31:29;;;;;;;9.60;7.43;;;;;;;25.57;65.40;101601.31;5063613;28;20195;-71
2023/06/08 09:34:10;;;;;;;11.57;8.13;;;;;;;25.73;69.27;101633.16;5067456;28;20200;-72
2023/06/08 09:36:38;;;;;;;12.02;8.25;;;;;;;25.89;65.51;101614.31;5061891;28;20974;-71
2023/06/08 09:39:07;;;;;;;12.32;8.27;;;;;;;25.74;65.36;101624.41;5061608;28;20221;-71
2023/06/08 09:41:37;;;;;;;11.30;7.13;;;;;;;25.94;64.12;101620.31;5066637;28;20189;-71
2023/06/08 09:44:17;;;;;;;11.13;7.22;;;;;;;25.82;61.91;101617.13;5081918;28;20296;-71
2023/06/08 09:46:46;;;;;;;9.85;7.68;;;;;;;25.77;63.02;101626.91;5064743;28;20560;-71
2023/06/08 09:49:13;;;;;;;10.60;7.80;;;;;;;25.19;65.96;101663.59;5066923;28;20189;-71
2023/06/08 09:51:44;;;;;;;9.45;7.22;;;;;;;25.99;65.92;101654.28;5063582;28;20194;-70
2023/06/08 09:54:13;;;;;;;10.55;7.57;;;;;;;26.60;64.23;101631.28;5061309;28;20201;-71
2023/06/08 09:56:41;;;;;;;9.75;7.03;;;;;;;26.70;58.37;101619.53;5063348;28;20632;-71
2023/06/08 09:59:10;;;;;;;9.68;6.97;;;;;;;26.79;56.33;101613.94;5066665;28;20705;-70
2023/06/08 10:01:42;;;;;;;10.30;6.72;;;;;;;27.04;57.64;101625.34;5062126;28;20570;-71
2023/06/08 10:04:49;;;;;;;10.90;7.30;;;;;;;27.21;58.31;101640.56;5065278;28;20196;-71
2023/06/08 10:07:17;;;;;;;10.57;7.18;;;;;;;27.35;55.86;101615.44;5064584;28;20255;-72
2023/06/08 10:09:45;;;;;;;11.50;7.60;;;;;;;27.30;55.20;101627.06;5057580;28;20268;-72
2023/06/08 10:12:12;;;;;;;11.63;7.07;;;;;;;27.50;54.88;101625.38;5064749;28;20751;-71
2023/06/08 10:14:39;;;;;;;8.70;6.40;;;;;;;27.69;52.02;101605.34;5061843;28;20212;-69
2023/06/08 10:17:06;;;;;;;7.07;5.82;;;;;;;27.69;52.50;101615.00;5065237;28;20201;-72
2023/06/08 10:19:34;;;;;;;10.73;6.95;;;;;;;27.94;52.11;101621.06;5065498;28;20216;-72
2023/06/08 10:22:01;;;;;;;11.27;7.53;;;;;;;28.06;51.33;101608.28;5066105;28;20262;-70
2023/06/08 10:24:29;;;;;;;8.07;6.00;;;;;;;28.34;51.31;101614.13;5062744;28;20192;-72
2023/06/08 10:27:09;;;;;;;10.10;6.63;;;;;;;28.38;49.82;101604.31;5061726;28;20223;-72
2023/06/08 10:29:34;;;;;;;8.90;5.93;;;;;;;28.41;48.81;101606.88;5063281;28;20609;-71
2023/06/08 10:32:05;;;;;;;10.25;6.95;;;;;;;28.52;48.53;101592.31;5066029;28;20307;-71
2023/06/08 10:34:38;;;;;;;7.90;5.78;;;;;;;28.85;49.98;101624.28;5060073;28;20713;-71
2023/06/08 10:37:03;;;;;;;9.65;5.75;;;;;;;28.80;47.78;101613.94;5061459;28;20667;-72
2023/06/08 10:39:45;;;;;;;9.23;5.93;;;;;;;28.98;46.42;101599.97;5059674;28;20259;-72
2023/06/08 10:42:18;;;;;;;10.05;6.05;;;;;;;27.77;45.91;101618.22;5064601;28;20212;-70
2023/06/08 10:45:02;;;;;;;9.23;5.55;;;;;;;28.53;46.49;101640.63;5064460;28;20235;-71
2023/06/08 10:47:31;;;;;;;7.50;5.10;;;;;;;28.85;43.69;101585.56;5064199;28;20603;-71
2023/06/08 10:50:06;;;;;;;8.65;4.72;;;;;;;29.01;41.71;101601.63;5065332;28;20201;-72
2023/06/08 10:52:45;;;;;;;6.13;4.97;;;;;;;28.96;44.05;101699.41;5059715;28;20623;-70
2023/06/08 10:55:13;;;;;;;8.10;5.45;;;;;;;29.35;46.11;101739.09;5062641;28;20200;-72
2023/06/08 10:57:46;;;;;;;8.98;5.25;;;;;;;29.34;44.77;101700.44;5060242;28;20276;-71
2023/06/08 11:00:29;;;;;;;7.20;5.45;;;;;;;29.47;44.11;101675.19;5061466;28;20208;-71
2023/06/08 11:03:07;;;;;;;9.52;5.75;;;;;;;29.48;43.62;101675.09;5061340;28;20213;-71
2023/06/08 11:05:34;;;;;;;9.20;6.00;;;;;;;29.15;44.12;101659.94;5061162;28;20188;-70
2023/06/08 11:08:00;;;;;;;8.48;5.72;;;;;;;29.66;44.29;101670.81;5060581;28;20201;-70
2023/06/08 11:10:27;;;;;;;7.60;5.30;;;;;;;29.92;41.94;101629.03;5062632;28;20205;-71
2023/06/08 11:12:53;;;;;;;10.15;5.85;;;;;;;29.81;43.42;101649.81;5060799;28;20267;-70